English বাংলা অনুসন্ধান

রাজশাহী, রংপুর, ময়মনসিংহ, ঢাকা, খুলনা, বরিশাল, চট্টগ্রাম এবং সিলেট বিভাগের দু/এক জায়গায় অস্থায়ীভাবে দমকা হাওয়াসহ হালকা থেকে মাঝারী ধরনের বৃষ্টি হতে পারে।

ট্যাফ

TAF VGHS 162300Z 1700/1806 18006KT 3500 HZ SCT012 BKN100 BECMG 1806/1808 22008KT 4000 HZ SCT012 BKN100 TEMPO 1808/1814 14025KT 2000 RA/TSRA BKN008 FEW025CB OVC090 BECMG 1816/1820 21008KT 3500 HZ SCT015 BKN100=

 

TAF VGEG 162300Z 1700/1806 00000KT 4000 SCT016 BKN100 BECMG 1702/1704 20012KT 5000 SCT016 BKN120 BECMG 1711/1713 25010KT 4500 HZ SCT018 BKN100 TEMPO 1720/1805 25012/15KT 2500 RA/TSRA BKN008 FEW027CB OVC090=

 

TAF VGSY 161000Z 1612/1718 12005KT 4000 HZ SCT015 BKN100 BECMG 1623/1701 06004KT 3000 HZ SCT012 BKN100 BECMG 1703/1705 09005KT 3000 HZ SCT015 BKN100 TEMPO 1614/1706 18020KT 2000 RA/TS BKN007 FEW025CB OVC090=